Time;durP1;ratioP1;P1;durP2;ratioP2;P2;SDS_P1;SDS_P2;PMS_P1;PMS_P2;Temp;Humidity;BMP_temperature;BMP_pressure;BME280_temperature;BME280_humidity;BME280_pressure;Samples;Min_cycle;Max_cycle;Signal;HPM_P1;HPM_P2
2022/09/08 00:00:13;;;;;;;6.60;5.17;;;18.80;99.90;;;;;;5048165;28;20270;-71
2022/09/08 00:02:39;;;;;;;5.57;4.20;;;18.80;99.90;;;;;;5049388;28;20495;-71
2022/09/08 00:05:06;;;;;;;6.83;5.30;;;18.80;99.90;;;;;;5048181;28;20543;-71
2022/09/08 00:07:32;;;;;;;10.03;4.43;;;18.90;99.90;;;;;;5047508;28;20211;-71
2022/09/08 00:09:58;;;;;;;8.57;4.40;;;18.90;99.90;;;;;;5040760;28;20432;-71
2022/09/08 00:12:24;;;;;;;5.07;4.30;;;18.90;97.50;;;;;;5043861;28;20419;-71
2022/09/08 00:14:51;;;;;;;7.80;4.60;;;18.80;95.00;;;;;;5047235;28;20447;-71
2022/09/08 00:17:18;;;;;;;9.57;5.40;;;18.80;94.80;;;;;;5048498;28;20166;-71
2022/09/08 00:19:44;;;;;;;5.87;4.50;;;18.80;99.90;;;;;;5048492;28;20491;-73
2022/09/08 00:22:09;;;;;;;5.50;4.40;;;18.90;99.90;;;;;;5047915;28;20522;-73
2022/09/08 00:24:35;;;;;;;8.03;4.30;;;18.90;99.90;;;;;;5047976;28;20269;-73
2022/09/08 00:27:19;;;;;;;4.90;3.97;;;19.00;97.50;;;;;;5047463;28;20209;-73
2022/09/08 00:29:45;;;;;;;4.27;3.60;;;19.00;97.10;;;;;;5036697;28;20178;-73
2022/09/08 00:32:10;;;;;;;5.93;4.50;;;18.90;93.00;;;;;;5042616;28;20416;-75
2022/09/08 00:34:36;;;;;;;5.30;4.00;;;18.80;94.00;;;;;;5048078;28;20611;-73
2022/09/08 00:37:02;;;;;;;5.77;3.90;;;18.70;94.40;;;;;;5046755;28;20268;-73
2022/09/08 00:39:27;;;;;;;4.47;3.83;;;18.70;96.10;;;;;;5047645;28;20177;-73
2022/09/08 00:41:55;;;;;;;5.97;4.43;;;18.70;95.60;;;;;;5045594;28;20574;-72
2022/09/08 00:44:41;;;;;;;8.00;4.40;;;18.70;97.00;;;;;;5047509;28;20179;-72
2022/09/08 00:47:33;;;;;;;6.90;4.07;;;19.40;96.60;;;;;;5042326;28;20411;-75
2022/09/08 00:50:09;;;;;;;6.10;4.40;;;18.60;93.20;;;;;;5042711;28;20953;-72
2022/09/08 00:53:00;;;;;;;7.43;4.50;;;18.60;93.00;;;;;;5047615;28;20473;-73
2022/09/08 00:55:29;;;;;;;5.40;4.83;;;18.60;95.40;;;;;;5040841;28;20447;-73
2022/09/08 00:57:55;;;;;;;4.90;4.33;;;18.60;96.10;;;;;;5048893;28;20778;-73
2022/09/08 01:00:20;;;;;;;7.50;4.70;;;18.60;92.90;;;;;;5043931;28;20466;-74
2022/09/08 01:02:47;;;;;;;11.17;5.40;;;18.50;96.90;;;;;;5047893;28;20377;-74
2022/09/08 01:05:20;;;;;;;11.40;6.37;;;18.60;99.90;;;;;;5042188;28;20733;-74
2022/09/08 01:13:56;;;;;;;7.83;5.67;;;18.60;99.90;;;;;;5043431;28;20411;-74
2022/09/08 01:16:21;;;;;;;9.07;5.80;;;18.60;99.90;;;;;;5045597;28;20968;-73
2022/09/08 01:18:47;;;;;;;11.53;5.70;;;18.60;99.90;;;;;;5038490;28;20432;-73
2022/09/08 01:21:31;;;;;;;7.70;5.80;;;18.80;99.90;;;;;;5032891;28;20289;-73
2022/09/08 01:24:27;;;;;;;9.80;6.23;;;18.80;99.90;;;;;;5032397;28;20651;-73
2022/09/08 01:27:23;;;;;;;14.20;6.13;;;18.90;99.90;;;;;;5051433;28;20423;-73
2022/09/08 01:29:54;;;;;;;8.77;6.00;;;18.80;99.90;;;;;;5050565;28;21010;-73
2022/09/08 01:32:20;;;;;;;7.43;5.60;;;18.80;99.90;;;;;;5052240;28;20412;-75
2022/09/08 01:34:45;;;;;;;7.63;6.30;;;18.90;99.90;;;;;;5048842;28;20638;-75
2022/09/08 01:37:12;;;;;;;13.73;5.83;;;18.90;99.90;;;;;;5040725;28;20428;-74
2022/09/08 01:39:38;;;;;;;11.17;6.90;;;19.00;99.90;;;;;;5048225;28;20174;-75
2022/09/08 01:42:05;;;;;;;8.80;6.50;;;19.00;99.90;;;;;;5045182;28;20477;-73
2022/09/08 01:44:32;;;;;;;7.30;5.80;;;19.00;99.90;;;;;;5052189;28;20177;-73
2022/09/08 01:46:58;;;;;;;9.90;6.50;;;19.00;99.90;;;;;;5044680;28;21091;-73
2022/09/08 01:49:24;;;;;;;11.10;5.93;;;19.00;99.90;;;;;;5052476;28;20485;-75
2022/09/08 01:51:50;;;;;;;7.37;6.20;;;19.00;99.90;;;;;;5049456;28;20427;-72
2022/09/08 01:54:15;;;;;;;12.10;6.10;;;19.10;99.90;;;;;;5050496;28;20173;-73
2022/09/08 01:56:41;;;;;;;7.90;5.40;;;19.20;99.90;;;;;;5049767;28;20200;-74
2022/09/08 01:59:07;;;;;;;7.13;5.30;;;19.10;99.90;;;;;;5050788;28;20205;-75
2022/09/08 02:01:32;;;;;;;9.50;6.30;;;19.00;99.90;;;;;;5045742;28;20216;-74
2022/09/08 02:03:58;;;;;;;13.27;6.20;;;20.20;99.90;;;;;;5049979;28;20257;-73
2022/09/08 02:06:23;;;;;;;6.90;5.10;;;19.10;99.90;;;;;;5045741;28;20189;-74
2022/09/08 02:08:53;;;;;;;8.50;5.90;;;19.10;99.90;;;;;;5051150;28;20492;-74
2022/09/08 02:11:19;;;;;;;8.63;5.20;;;19.90;99.90;;;;;;5040293;28;20777;-71
2022/09/08 02:13:45;;;;;;;7.10;4.40;;;18.70;95.70;;;;;;5046367;28;20494;-73
2022/09/08 02:16:11;;;;;;;7.17;4.67;;;18.40;96.30;;;;;;5049236;28;20463;-73
2022/09/08 02:18:38;;;;;;;7.60;4.70;;;18.20;99.90;;;;;;5047959;28;20510;-74
2022/09/08 02:21:08;;;;;;;8.30;4.80;;;18.10;99.90;;;;;;5050253;28;20444;-74
2022/09/08 02:23:35;;;;;;;5.40;4.40;;;18.00;99.90;;;;;;5049151;28;20407;-73
2022/09/08 02:26:00;;;;;;;6.07;4.00;;;18.00;99.90;;;;;;5047398;28;20958;-73
2022/09/08 02:28:26;;;;;;;11.13;4.33;;;17.90;99.90;;;;;;5030813;28;20507;-74
2022/09/08 02:30:57;;;;;;;10.07;4.60;;;17.90;99.90;;;;;;5049272;28;20548;-75
2022/09/08 02:33:22;;;;;;;13.23;5.67;;;17.90;99.90;;;;;;5050014;28;20259;-74
2022/09/08 02:35:48;;;;;;;8.67;5.50;;;17.90;99.90;;;;;;5039583;28;21077;-73
2022/09/08 02:38:13;;;;;;;11.63;5.57;;;17.90;99.90;;;;;;5049644;28;20169;-73
2022/09/08 02:40:39;;;;;;;7.50;5.00;;;18.00;99.90;;;;;;5046535;28;20620;-73
2022/09/08 02:43:04;;;;;;;5.60;4.80;;;18.00;99.90;;;;;;5050305;28;20209;-75
2022/09/08 02:45:30;;;;;;;9.77;5.30;;;18.00;99.90;;;;;;5042856;28;20197;-73
2022/09/08 02:47:56;;;;;;;9.63;6.17;;;18.10;99.90;;;;;;5047468;28;20185;-74
2022/09/08 02:50:21;;;;;;;7.90;5.50;;;18.00;99.90;;;;;;5038125;28;20189;-74
2022/09/08 02:52:47;;;;;;;8.50;5.30;;;18.00;99.90;;;;;;5043040;28;20181;-73
2022/09/08 02:55:12;;;;;;;9.47;4.93;;;18.00;99.90;;;;;;5049721;28;20684;-74
2022/09/08 02:57:38;;;;;;;8.63;5.60;;;18.00;99.90;;;;;;5042192;28;20197;-73
2022/09/08 03:00:04;;;;;;;4.83;4.07;;;18.00;99.90;;;;;;5050589;28;20251;-75
2022/09/08 03:02:29;;;;;;;8.63;5.20;;;18.00;99.90;;;;;;5048459;28;20177;-75
2022/09/08 03:04:56;;;;;;;6.50;4.93;;;18.00;99.90;;;;;;5045375;28;20842;-74
2022/09/08 03:07:21;;;;;;;7.87;5.17;;;18.00;99.90;;;;;;5048311;28;20168;-73
2022/09/08 03:09:47;;;;;;;6.50;5.20;;;18.10;99.90;;;;;;5049053;28;20416;-74
2022/09/08 03:12:12;;;;;;;6.57;5.27;;;18.20;99.90;;;;;;5046581;28;20180;-74
2022/09/08 03:14:38;;;;;;;9.03;5.73;;;18.20;99.90;;;;;;5053004;28;20917;-75
2022/09/08 03:17:04;;;;;;;10.23;5.53;;;18.20;99.90;;;;;;5051921;28;20174;-74
2022/09/08 03:19:30;;;;;;;6.37;4.83;;;18.20;99.90;;;;;;5046088;28;20718;-74
2022/09/08 03:21:56;;;;;;;38.57;6.33;;;18.10;99.90;;;;;;5040702;28;20247;-74
2022/09/08 03:24:21;;;;;;;19.10;7.97;;;18.10;99.90;;;;;;5044864;28;20244;-73
2022/09/08 03:26:47;;;;;;;11.87;6.70;;;18.20;99.90;;;;;;5046973;28;20200;-72
2022/09/08 03:29:12;;;;;;;10.17;5.57;;;18.20;99.90;;;;;;5049120;28;20199;-73
2022/09/08 03:31:38;;;;;;;10.67;6.57;;;18.20;99.90;;;;;;5046584;28;20180;-75
2022/09/08 03:34:03;;;;;;;8.90;5.90;;;18.10;99.90;;;;;;5050311;28;20173;-74
2022/09/08 03:36:29;;;;;;;10.23;6.60;;;18.10;99.90;;;;;;5042963;28;20197;-73
2022/09/08 03:38:54;;;;;;;8.70;5.63;;;18.10;99.90;;;;;;5045282;28;20668;-74
2022/09/08 03:41:20;;;;;;;9.30;6.13;;;18.10;99.90;;;;;;5041191;28;20229;-73
2022/09/08 03:43:48;;;;;;;12.70;6.60;;;18.10;99.90;;;;;;5049723;28;20162;-73
2022/09/08 03:46:15;;;;;;;15.83;6.60;;;18.20;99.90;;;;;;5053203;28;20283;-73
2022/09/08 03:48:41;;;;;;;7.40;5.07;;;18.20;99.90;;;;;;5051439;28;20926;-73
2022/09/08 03:51:12;;;;;;;17.23;6.53;;;18.20;99.90;;;;;;5041920;28;20430;-73
2022/09/08 03:53:38;;;;;;;15.07;6.47;;;18.20;99.90;;;;;;5049481;28;20400;-75
2022/09/08 03:56:08;;;;;;;10.57;6.77;;;18.20;99.90;;;;;;5047389;28;20447;-73
2022/09/08 03:58:35;;;;;;;13.70;6.80;;;18.20;99.90;;;;;;5043343;28;20181;-73
2022/09/08 04:01:01;;;;;;;11.57;8.07;;;18.20;99.90;;;;;;5042634;28;20463;-74
2022/09/08 04:03:27;;;;;;;12.40;7.40;;;18.30;99.90;;;;;;5043170;28;20580;-75
2022/09/08 04:05:53;;;;;;;15.83;7.53;;;18.30;99.90;;;;;;5043493;28;20467;-74
2022/09/08 04:08:19;;;;;;;8.83;6.60;;;18.30;99.90;;;;;;5039032;28;20421;-76
2022/09/08 04:10:44;;;;;;;9.57;6.50;;;18.30;99.90;;;;;;5047397;28;20648;-74
2022/09/08 04:13:11;;;;;;;9.30;7.40;;;18.20;99.90;;;;;;5046921;28;20276;-74
2022/09/08 04:15:38;;;;;;;10.60;6.43;;;18.20;99.90;;;;;;5057855;28;20189;-74
2022/09/08 04:18:04;;;;;;;13.07;7.17;;;18.20;99.90;;;;;;5069323;28;20448;-74
2022/09/08 04:20:30;;;;;;;16.13;6.90;;;18.20;99.90;;;;;;5050851;28;20451;-74
2022/09/08 04:22:55;;;;;;;9.80;6.87;;;18.20;99.90;;;;;;5048349;28;20434;-74
2022/09/08 04:25:22;;;;;;;8.90;6.07;;;18.20;99.90;;;;;;5033092;28;20221;-74
2022/09/08 04:27:48;;;;;;;12.73;6.53;;;18.20;99.90;;;;;;5039084;28;20194;-74
2022/09/08 04:30:14;;;;;;;8.20;6.30;;;18.20;99.90;;;;;;5037397;28;20489;-73
2022/09/08 04:32:40;;;;;;;7.57;6.40;;;18.20;99.90;;;;;;5040238;28;20872;-73
2022/09/08 04:35:06;;;;;;;9.63;6.37;;;18.20;99.90;;;;;;5038373;28;20466;-76
2022/09/08 04:37:32;;;;;;;8.90;6.40;;;18.20;99.90;;;;;;5041442;28;20178;-75
2022/09/08 04:39:58;;;;;;;9.30;5.80;;;18.20;99.90;;;;;;5040942;28;20420;-74
2022/09/08 04:42:23;;;;;;;7.00;5.20;;;18.10;99.90;;;;;;5037321;28;20455;-75
2022/09/08 04:44:49;;;;;;;13.30;5.77;;;18.10;99.90;;;;;;5055648;28;20249;-74
2022/09/08 04:47:15;;;;;;;8.07;6.00;;;18.30;99.90;;;;;;5047404;28;20669;-74
2022/09/08 04:49:40;;;;;;;8.03;6.27;;;18.30;99.90;;;;;;5041980;28;20239;-74
2022/09/08 04:52:06;;;;;;;7.20;5.60;;;18.30;99.90;;;;;;5050589;28;20264;-74
2022/09/08 04:54:32;;;;;;;10.53;5.57;;;18.20;99.90;;;;;;5038584;28;20184;-73
2022/09/08 04:56:57;;;;;;;10.20;5.93;;;18.20;99.90;;;;;;5044722;28;20208;-74
2022/09/08 04:59:25;;;;;;;8.00;5.53;;;18.20;99.90;;;;;;5051575;28;20177;-73
2022/09/08 05:01:51;;;;;;;13.87;6.77;;;18.20;99.90;;;;;;5052617;28;20605;-74
2022/09/08 05:04:16;;;;;;;10.40;6.97;;;18.30;99.90;;;;;;5053263;28;20403;-74
2022/09/08 05:06:42;;;;;;;7.80;5.57;;;18.30;99.90;;;;;;5052578;28;20732;-74
2022/09/08 05:09:09;;;;;;;4.90;4.33;;;18.30;99.90;;;;;;5052106;28;20230;-76
2022/09/08 05:11:35;;;;;;;5.70;3.90;;;18.20;99.90;;;;;;5053186;28;20177;-74
2022/09/08 05:14:01;;;;;;;7.17;4.40;;;18.10;99.90;;;;;;5055898;28;20418;-74
2022/09/08 05:16:28;;;;;;;8.20;4.57;;;18.10;99.90;;;;;;5064824;28;20217;-74
2022/09/08 05:18:59;;;;;;;7.13;4.47;;;18.10;99.90;;;;;;5073031;28;20494;-73
2022/09/08 05:21:26;;;;;;;7.20;4.70;;;18.10;99.90;;;;;;5073142;28;20448;-76
2022/09/08 05:23:53;;;;;;;4.20;3.80;;;18.20;99.90;;;;;;5071066;28;20425;-74
2022/09/08 05:26:21;;;;;;;5.17;4.10;;;18.20;99.90;;;;;;5073115;28;20454;-74
2022/09/08 05:28:47;;;;;;;5.90;4.10;;;18.10;99.90;;;;;;5070412;28;20431;-74
2022/09/08 05:31:15;;;;;;;5.47;4.53;;;18.10;99.90;;;;;;5073089;28;20851;-74
2022/09/08 05:33:41;;;;;;;12.53;5.80;;;18.00;99.90;;;;;;5072521;28;20403;-74
2022/09/08 05:36:15;;;;;;;7.00;5.40;;;18.00;99.90;;;;;;5071431;28;20438;-74
2022/09/08 05:38:41;;;;;;;9.80;5.93;;;18.10;99.90;;;;;;5058250;28;20676;-74
2022/09/08 05:41:07;;;;;;;8.87;6.33;;;18.20;99.90;;;;;;5052259;28;20490;-74
2022/09/08 05:43:33;;;;;;;8.17;5.90;;;18.20;99.90;;;;;;5051530;28;20271;-74
2022/09/08 05:45:59;;;;;;;9.23;7.00;;;18.20;99.90;;;;;;5063916;28;20431;-74
2022/09/08 05:48:25;;;;;;;7.10;6.40;;;18.20;99.90;;;;;;5072214;28;20407;-74
2022/09/08 05:50:50;;;;;;;7.60;6.50;;;18.30;99.90;;;;;;5072579;28;20968;-77
2022/09/08 05:53:16;;;;;;;13.20;6.83;;;18.30;99.90;;;;;;5071136;28;20229;-74
2022/09/08 05:55:41;;;;;;;6.73;5.90;;;18.30;99.90;;;;;;5072493;28;20271;-74
2022/09/08 05:58:10;;;;;;;8.80;6.27;;;18.20;99.90;;;;;;5071261;28;20647;-74
2022/09/08 06:00:37;;;;;;;7.77;6.17;;;18.20;99.90;;;;;;5071185;28;20431;-74
2022/09/08 06:03:03;;;;;;;8.90;6.07;;;18.20;99.90;;;;;;5070150;28;20411;-74
2022/09/08 06:05:29;;;;;;;6.97;5.30;;;18.20;99.90;;;;;;5072584;28;20920;-73
2022/09/08 06:07:54;;;;;;;6.40;5.40;;;18.20;99.90;;;;;;5070074;28;20574;-74
2022/09/08 06:10:20;;;;;;;5.77;4.47;;;18.20;99.90;;;;;;5051758;28;20223;-73
2022/09/08 06:12:45;;;;;;;7.03;4.63;;;18.10;99.90;;;;;;5051171;28;20173;-75
2022/09/08 06:15:11;;;;;;;5.50;3.60;;;18.00;99.90;;;;;;5058076;28;20280;-74
2022/09/08 06:17:37;;;;;;;4.50;3.07;;;18.00;99.90;;;;;;5069020;28;20492;-74
2022/09/08 06:20:05;;;;;;;5.30;3.90;;;17.90;99.90;;;;;;5072031;28;20183;-75
2022/09/08 06:22:34;;;;;;;10.10;2.90;;;17.80;99.90;;;;;;5072449;28;20465;-75
2022/09/08 06:25:00;;;;;;;3.67;2.87;;;17.70;99.90;;;;;;5071704;28;20576;-74
2022/09/08 06:27:46;;;;;;;4.63;3.37;;;17.70;99.90;;;;;;5070959;28;20460;-75
2022/09/08 06:30:15;;;;;;;3.57;2.37;;;17.70;99.90;;;;;;5071229;28;20395;-74
2022/09/08 06:32:53;;;;;;;6.17;2.50;;;17.60;99.90;;;;;;5071177;28;20410;-74
2022/09/08 06:35:30;;;;;;;4.90;2.23;;;17.60;99.90;;;;;;5070138;28;20434;-75
2022/09/08 06:38:06;;;;;;;4.33;2.63;;;17.50;99.90;;;;;;5071032;28;20502;-75
2022/09/08 06:40:45;;;;;;;2.67;2.27;;;17.50;99.90;;;;;;5071408;28;20546;-75
2022/09/08 06:43:35;;;;;;;4.77;2.23;;;17.60;99.90;;;;;;5068787;28;20418;-76
2022/09/08 06:46:06;;;;;;;3.07;2.33;;;17.60;99.90;;;;;;5051402;28;20846;-73
2022/09/08 06:48:37;;;;;;;2.30;1.90;;;17.50;99.90;;;;;;5050952;28;20426;-73
2022/09/08 06:51:36;;;;;;;2.10;1.90;;;17.50;99.90;;;;;;5042683;28;20898;-75
2022/09/08 06:54:20;;;;;;;4.60;1.90;;;17.40;99.90;;;;;;5050555;28;20407;-75
2022/09/08 06:57:15;;;;;;;5.03;1.57;;;17.30;99.90;;;;;;5050540;28;20756;-75
2022/09/08 06:59:49;;;;;;;4.90;1.77;;;17.40;99.90;;;;;;5045924;28;20455;-76
2022/09/08 07:03:02;;;;;;;2.93;1.97;;;17.40;99.90;;;;;;5034365;28;20458;-75
2022/09/08 07:05:43;;;;;;;5.40;1.53;;;17.20;99.90;;;;;;5031048;28;20424;-73
2022/09/08 07:08:08;;;;;;;1.80;1.60;;;17.30;99.90;;;;;;5030594;28;20412;-72
2022/09/08 07:10:45;;;;;;;2.87;1.70;;;17.20;99.90;;;;;;5031276;28;20404;-73
2022/09/08 07:13:30;;;;;;;3.60;1.80;;;17.20;99.90;;;;;;5029713;28;20533;-73
2022/09/08 07:16:18;;;;;;;1.70;1.60;;;17.30;99.90;;;;;;5061557;28;20484;-73
2022/09/08 07:19:02;;;;;;;3.77;2.03;;;17.30;99.90;;;;;;5069260;28;20418;-73
2022/09/08 07:21:27;;;;;;;1.63;1.53;;;17.40;99.90;;;;;;5070667;28;20468;-73
2022/09/08 07:23:55;;;;;;;2.37;1.60;;;17.40;99.90;;;;;;5070315;28;20440;-73
2022/09/08 07:26:33;;;;;;;2.37;1.50;;;17.40;99.90;;;;;;5070430;28;20225;-74
2022/09/08 07:29:05;;;;;;;3.10;1.50;;;17.40;99.00;;;;;;5069557;28;20434;-74
2022/09/08 07:31:31;;;;;;;1.50;1.20;;;17.40;99.90;;;;;;5070542;28;20402;-74
2022/09/08 07:34:04;;;;;;;2.60;1.87;;;17.40;99.90;;;;;;5069099;28;20977;-73
2022/09/08 07:36:39;;;;;;;3.20;1.53;;;17.40;98.90;;;;;;5071224;28;20228;-73
2022/09/08 07:39:37;;;;;;;3.10;1.40;;;17.30;99.00;;;;;;5054546;28;20430;-74
2022/09/08 07:42:05;;;;;;;3.33;1.27;;;17.30;95.90;;;;;;5029817;28;20460;-73
2022/09/08 07:44:33;;;;;;;2.23;1.70;;;17.40;92.60;;;;;;5045438;28;20406;-73
2022/09/08 07:47:23;;;;;;;2.53;1.60;;;17.40;93.80;;;;;;5061903;28;20411;-73
2022/09/08 07:50:14;;;;;;;3.63;1.63;;;17.40;79.50;;;;;;5070483;28;20799;-73
2022/09/08 07:53:23;;;;;;;2.40;1.67;;;17.50;80.60;;;;;;5069771;28;20399;-73
2022/09/08 07:55:50;;;;;;;2.70;1.40;;;17.60;69.90;;;;;;5061793;28;20980;-73
2022/09/08 07:58:39;;;;;;;2.20;1.40;;;17.90;63.20;;;;;;5067937;28;20450;-74
2022/09/08 08:01:04;;;;;;;3.73;1.57;;;18.30;54.70;;;;;;5070117;28;20454;-74
2022/09/08 08:03:58;;;;;;;4.00;1.47;;;19.30;53.60;;;;;;5070055;28;20411;-73
2022/09/08 08:06:49;;;;;;;4.83;1.60;;;20.70;8.20;;;;;;5070302;28;20210;-74
2022/09/08 08:09:36;;;;;;;2.73;1.40;;;22.80;1.00;;;;;;5056023;28;20411;-74
2022/09/08 08:12:07;;;;;;;2.87;1.50;;;23.30;1.00;;;;;;5041231;28;20442;-74
2022/09/08 08:14:46;;;;;;;2.50;1.40;;;22.70;1.00;;;;;;5055965;28;21015;-73
2022/09/08 08:17:22;;;;;;;2.50;1.40;;;21.80;1.00;;;;;;5058307;28;20458;-74
2022/09/08 08:19:55;;;;;;;4.07;1.20;;;21.60;1.00;;;;;;5074304;28;20501;-73
2022/09/08 08:22:39;;;;;;;4.50;1.50;;;21.20;1.00;;;;;;5073404;28;20457;-73
2022/09/08 08:25:23;;;;;;;4.07;1.50;;;21.20;1.00;;;;;;5074252;28;20426;-74
2022/09/08 08:28:17;;;;;;;3.50;1.60;;;21.10;1.00;;;;;;5073871;28;20429;-74
2022/09/08 08:31:09;;;;;;;8.13;1.73;;;20.90;1.00;;;;;;5073983;28;20406;-74
2022/09/08 08:33:43;;;;;;;2.77;1.50;;;20.30;1.00;;;;;;5073688;28;20452;-75
2022/09/08 08:36:15;;;;;;;3.30;1.40;;;19.90;1.00;;;;;;5072633;28;20434;-74
2022/09/08 08:38:45;;;;;;;7.23;1.50;;;20.00;1.00;;;;;;5072938;28;20441;-74
2022/09/08 08:41:20;;;;;;;2.30;1.60;;;20.00;1.00;;;;;;5073584;28;20503;-74
2022/09/08 08:44:02;;;;;;;2.83;1.63;;;20.10;1.00;;;;;;5072135;28;20405;-74
2022/09/08 08:47:03;;;;;;;6.50;2.20;;;20.30;1.00;;;;;;5065323;28;20430;-73
2022/09/08 08:50:06;;;;;;;2.60;1.70;;;20.40;1.00;;;;;;5073619;28;20556;-73
2022/09/08 08:53:10;;;;;;;2.47;1.80;;;20.20;1.00;;;;;;5073045;28;20688;-73
2022/09/08 08:55:59;;;;;;;2.30;1.60;;;20.30;1.00;;;;;;5074076;28;20419;-73
2022/09/08 08:58:33;;;;;;;6.00;2.00;;;20.30;1.00;;;;;;5059926;28;20522;-73
2022/09/08 09:01:13;;;;;;;4.80;1.93;;;21.20;1.00;;;;;;5049761;28;20462;-73
2022/09/08 09:03:51;;;;;;;3.20;1.57;;;22.00;1.00;;;;;;5051788;28;20820;-74
2022/09/08 09:06:28;;;;;;;3.67;1.97;;;22.00;1.00;;;;;;5053113;28;20826;-74
2022/09/08 09:09:12;;;;;;;3.40;1.50;;;21.80;1.00;;;;;;5051306;28;20418;-73
2022/09/08 09:11:53;;;;;;;3.87;1.83;;;21.50;1.00;;;;;;5052840;28;20414;-76
2022/09/08 09:14:47;;;;;;;3.47;1.50;;;21.30;1.00;;;;;;5058737;28;20410;-74
2022/09/08 09:17:20;;;;;;;4.33;1.60;;;21.70;1.00;;;;;;5060184;28;20406;-73
2022/09/08 09:19:45;;;;;;;3.40;1.87;;;21.90;1.00;;;;;;5073156;28;20399;-74
2022/09/08 09:22:20;;;;;;;3.40;1.53;;;23.00;1.00;;;;;;5072267;28;20555;-74
2022/09/08 09:25:11;;;;;;;6.90;1.97;;;23.40;1.00;;;;;;5072882;28;20176;-74
2022/09/08 09:27:46;;;;;;;2.37;1.60;;;23.30;1.00;;;;;;5072167;28;20806;-74
2022/09/08 09:30:15;;;;;;;4.47;1.80;;;23.20;1.00;;;;;;5071433;28;20405;-74
2022/09/08 09:32:58;;;;;;;2.53;1.73;;;22.70;1.00;;;;;;5072341;28;20406;-74
2022/09/08 09:35:39;;;;;;;3.70;1.50;;;22.80;1.00;;;;;;5072577;28;20517;-73
2022/09/08 09:38:22;;;;;;;2.73;1.80;;;22.80;1.00;;;;;;5064735;28;20411;-73
2022/09/08 09:41:08;;;;;;;2.47;1.50;;;22.80;1.00;;;;;;5052262;28;20454;-74
2022/09/08 09:43:52;;;;;;;4.73;1.60;;;22.80;1.00;;;;;;5051332;28;20952;-73
2022/09/08 09:46:43;;;;;;;4.27;1.50;;;22.90;1.00;;;;;;5054874;28;20836;-74
2022/09/08 09:49:21;;;;;;;4.57;1.50;;;22.90;1.00;;;;;;5052482;28;20422;-73
2022/09/08 09:52:31;;;;;;;3.13;1.80;;;22.90;1.00;;;;;;5051621;28;20407;-72
2022/09/08 09:55:21;;;;;;;2.90;1.60;;;22.40;1.00;;;;;;5052318;28;20427;-73
2022/09/08 09:58:11;;;;;;;3.47;1.60;;;22.10;1.00;;;;;;5051762;28;20434;-73
2022/09/08 10:01:01;;;;;;;4.97;1.67;;;22.00;1.00;;;;;;5052406;28;20813;-74
2022/09/08 10:04:09;;;;;;;2.40;1.50;;;22.00;1.00;;;;;;5051877;28;20407;-73
2022/09/08 10:07:07;;;;;;;3.20;1.70;;;22.10;1.00;;;;;;5052196;28;20419;-74
2022/09/08 10:10:00;;;;;;;3.60;1.63;;;21.20;1.00;;;;;;5052412;28;20415;-74
2022/09/08 10:12:59;;;;;;;2.10;1.40;;;22.20;1.00;;;;;;5046454;28;20408;-74
2022/09/08 10:16:02;;;;;;;6.93;1.70;;;23.00;1.00;;;;;;5057937;28;20435;-74
2022/09/08 10:19:10;;;;;;;2.23;1.40;;;24.00;1.00;;;;;;5031642;28;20424;-73
2022/09/08 10:22:06;;;;;;;2.73;1.57;;;24.70;1.00;;;;;;5031471;28;20468;-75
2022/09/08 10:24:59;;;;;;;2.40;1.33;;;26.90;1.00;;;;;;5031786;28;20457;-74
2022/09/08 10:28:19;;;;;;;3.30;1.70;;;27.10;1.00;;;;;;5031193;28;20519;-74
2022/09/08 10:31:06;;;;;;;2.40;1.60;;;26.10;1.00;;;;;;4993218;28;20412;-74
2022/09/08 10:34:12;;;;;;;2.57;1.50;;;24.70;1.00;;;;;;5030277;28;20412;-75
2022/09/08 10:37:03;;;;;;;2.60;1.50;;;23.90;1.00;;;;;;4996673;28;20468;-75
2022/09/08 10:40:04;;;;;;;3.27;1.77;;;24.00;1.00;;;;;;5031285;28;20499;-75
2022/09/08 10:42:51;;;;;;;3.43;1.90;;;24.20;1.00;;;;;;5030670;28;20513;-74
2022/09/08 10:45:43;;;;;;;3.20;1.60;;;24.40;1.00;;;;;;5053156;28;20477;-74
2022/09/08 10:48:51;;;;;;;2.37;1.50;;;24.50;1.00;;;;;;5031246;28;20403;-74
2022/09/08 10:51:38;;;;;;;2.67;1.60;;;24.20;1.00;;;;;;4998133;28;20957;-73
2022/09/08 10:54:35;;;;;;;2.50;1.50;;;23.80;1.00;;;;;;5031128;28;20466;-73
2022/09/08 10:57:19;;;;;;;3.40;1.70;;;24.00;1.00;;;;;;5030792;28;20416;-73
2022/09/08 11:00:09;;;;;;;3.80;1.63;;;24.80;1.00;;;;;;5050070;28;20399;-73
2022/09/08 11:02:56;;;;;;;4.20;1.70;;;25.50;1.00;;;;;;5044677;28;20451;-73
2022/09/08 11:05:41;;;;;;;2.93;1.50;;;26.80;1.00;;;;;;5047361;28;20793;-75
2022/09/08 11:08:38;;;;;;;3.57;1.67;;;28.10;1.00;;;;;;5050298;28;20813;-74
2022/09/08 11:11:26;;;;;;;3.13;1.90;;;28.50;1.00;;;;;;5050949;28;20395;-73
2022/09/08 11:14:24;;;;;;;3.03;1.67;;;28.10;1.00;;;;;;5050450;28;20419;-75
2022/09/08 11:17:20;;;;;;;2.57;1.50;;;29.70;1.00;;;;;;5062312;28;20300;-74
2022/09/08 11:19:50;;;;;;;3.37;1.60;;;29.30;1.00;;;;;;5069186;28;20262;-74
2022/09/08 11:22:52;;;;;;;3.30;1.87;;;27.80;1.00;;;;;;5070067;28;20199;-74
2022/09/08 11:25:41;;;;;;;6.33;1.60;;;27.70;1.00;;;;;;5033954;28;20525;-74
2022/09/08 11:28:16;;;;;;;2.67;1.40;;;28.80;1.00;;;;;;5069377;28;20434;-74
2022/09/08 11:31:01;;;;;;;2.80;1.70;;;30.00;1.00;;;;;;5070841;28;20189;-74
2022/09/08 11:33:38;;;;;;;4.00;1.60;;;29.70;1.00;;;;;;5068951;28;20179;-74
2022/09/08 11:36:14;;;;;;;4.50;1.73;;;28.50;1.00;;;;;;5070867;28;20195;-74
2022/09/08 11:39:05;;;;;;;2.53;1.40;;;27.50;1.00;;;;;;5057516;28;20418;-75
2022/09/08 11:41:57;;;;;;;2.20;1.10;;;27.10;1.00;;;;;;5050047;28;20466;-74
2022/09/08 11:44:53;;;;;;;2.73;1.30;;;29.00;1.00;;;;;;5056850;28;20757;-74
2022/09/08 11:47:42;;;;;;;5.67;1.30;;;31.00;1.00;;;;;;5039842;28;20209;-76
2022/09/08 11:50:26;;;;;;;3.03;1.30;;;33.00;1.00;;;;;;5030641;28;20212;-74
2022/09/08 11:53:25;;;;;;;2.70;1.38;;;32.40;1.00;;;;;;5028989;28;20172;-74
2022/09/08 11:56:03;;;;;;;3.30;1.65;;;33.60;1.00;;;;;;5030764;28;20189;-74
2022/09/08 11:58:35;;;;;;;2.75;1.50;;;32.70;1.00;;;;;;5029219;28;20166;-76
2022/09/08 12:01:39;;;;;;;3.05;1.25;;;33.30;1.00;;;;;;5030321;28;20193;-74
2022/09/08 12:04:14;;;;;;;3.63;1.40;;;34.40;1.00;;;;;;5028962;28;20728;-74
2022/09/08 12:06:51;;;;;;;2.50;1.25;;;35.80;1.00;;;;;;5028562;28;20231;-75
2022/09/08 12:09:26;;;;;;;3.30;1.40;;;35.80;1.00;;;;;;5042931;28;20174;-74
2022/09/08 12:12:19;;;;;;;2.88;1.20;;;35.50;1.00;;;;;;5049360;28;20196;-74
2022/09/08 12:14:50;;;;;;;3.50;1.25;;;36.50;1.00;;;;;;5057518;28;20745;-74
2022/09/08 12:17:34;;;;;;;2.28;1.20;;;37.10;1.00;;;;;;5064016;28;20642;-75
2022/09/08 12:20:22;;;;;;;2.60;1.10;;;35.00;1.00;;;;;;5070180;28;20179;-74
2022/09/08 12:23:15;;;;;;;2.80;1.20;;;33.80;1.00;;;;;;5069574;28;20646;-74
2022/09/08 12:26:11;;;;;;;3.75;1.30;;;31.70;1.00;;;;;;5071476;28;20203;-74
2022/09/08 12:28:52;;;;;;;3.78;1.30;;;29.60;1.00;;;;;;5066491;28;20241;-73
2022/09/08 12:31:36;;;;;;;3.60;1.43;;;28.40;1.00;;;;;;5070113;28;20168;-74
2022/09/08 12:34:32;;;;;;;3.60;1.37;;;28.10;1.00;;;;;;5070103;28;20211;-74
2022/09/08 12:37:22;;;;;;;3.90;1.40;;;28.40;1.00;;;;;;5069454;28;20752;-74
2022/09/08 12:40:02;;;;;;;4.27;1.47;;;29.30;1.00;;;;;;5068822;28;20176;-74
2022/09/08 12:42:47;;;;;;;3.83;1.30;;;28.40;1.00;;;;;;5069698;28;20206;-74
2022/09/08 12:45:18;;;;;;;4.87;1.30;;;28.30;1.00;;;;;;5063291;28;20192;-74
2022/09/08 12:47:56;;;;;;;3.10;1.33;;;27.40;1.00;;;;;;5067686;28;20172;-76
2022/09/08 12:50:42;;;;;;;5.87;1.50;;;26.50;1.00;;;;;;5068592;28;20405;-74
2022/09/08 12:53:39;;;;;;;4.80;1.60;;;25.50;1.00;;;;;;5069180;28;20398;-74
2022/09/08 12:56:14;;;;;;;5.37;1.50;;;25.70;1.00;;;;;;5069935;28;20985;-75
2022/09/08 12:59:04;;;;;;;4.20;1.50;;;27.00;1.00;;;;;;5052563;28;20813;-73
2022/09/08 13:01:30;;;;;;;3.17;1.70;;;29.30;1.00;;;;;;5038530;28;20455;-74
2022/09/08 13:03:59;;;;;;;6.43;1.60;;;29.80;1.00;;;;;;5031530;28;20408;-74
2022/09/08 13:06:44;;;;;;;4.10;1.40;;;30.60;1.00;;;;;;5033644;28;20185;-74
2022/09/08 13:09:31;;;;;;;2.45;1.38;;;31.90;1.00;;;;;;5033539;28;20368;-74
2022/09/08 13:12:29;;;;;;;5.03;1.20;;;34.30;1.00;;;;;;5032824;28;20261;-74
2022/09/08 13:15:14;;;;;;;3.22;1.30;;;35.60;1.00;;;;;;5016146;28;20223;-74
2022/09/08 13:17:51;;;;;;;3.40;1.30;;;34.80;1.00;;;;;;5070238;28;20642;-75
2022/09/08 13:20:22;;;;;;;3.80;1.30;;;34.10;1.00;;;;;;5073388;28;20172;-75
2022/09/08 13:23:09;;;;;;;2.53;1.10;;;33.70;1.00;;;;;;5072422;28;20543;-75
2022/09/08 13:26:02;;;;;;;6.20;1.20;;;34.00;1.00;;;;;;5073405;28;20193;-75
2022/09/08 13:29:08;;;;;;;3.03;1.20;;;33.50;1.00;;;;;;5072054;28;20237;-74
2022/09/08 13:31:59;;;;;;;3.05;1.23;;;33.70;1.00;;;;;;5073038;28;20677;-76
2022/09/08 13:35:00;;;;;;;3.33;1.30;;;32.10;1.00;;;;;;5073055;28;20172;-75
2022/09/08 13:37:46;;;;;;;4.35;1.52;;;31.30;1.00;;;;;;5071015;28;20183;-75
2022/09/08 13:40:30;;;;;;;5.93;1.40;;;32.90;1.00;;;;;;5046089;28;20172;-75
2022/09/08 13:43:17;;;;;;;3.33;1.20;;;34.90;1.00;;;;;;5052056;28;20206;-75